sensor_id;sensor_type;location;lat;lon;timestamp;temperature;humidity
4306;DHT22;2166;49.926;8.608;2023-12-14T00:01:54;6.40;65.10
4306;DHT22;2166;49.926;8.608;2023-12-14T00:04:23;6.40;65.20
4306;DHT22;2166;49.926;8.608;2023-12-14T00:06:54;6.30;65.00
4306;DHT22;2166;49.926;8.608;2023-12-14T00:09:24;6.30;65.00
4306;DHT22;2166;49.926;8.608;2023-12-14T00:11:53;6.30;65.00
4306;DHT22;2166;49.926;8.608;2023-12-14T00:14:21;6.30;65.00
4306;DHT22;2166;49.926;8.608;2023-12-14T00:16:51;6.30;65.00
4306;DHT22;2166;49.926;8.608;2023-12-14T00:19:23;6.30;64.90
4306;DHT22;2166;49.926;8.608;2023-12-14T00:21:51;6.30;64.90
4306;DHT22;2166;49.926;8.608;2023-12-14T00:24:21;6.30;64.80
4306;DHT22;2166;49.926;8.608;2023-12-14T00:26:49;6.30;64.80
4306;DHT22;2166;49.926;8.608;2023-12-14T00:29:17;6.30;64.80
4306;DHT22;2166;49.926;8.608;2023-12-14T00:31:46;6.30;64.80
4306;DHT22;2166;49.926;8.608;2023-12-14T00:34:15;6.20;64.80
4306;DHT22;2166;49.926;8.608;2023-12-14T00:36:43;6.20;64.80
4306;DHT22;2166;49.926;8.608;2023-12-14T00:39:12;6.20;64.80
4306;DHT22;2166;49.926;8.608;2023-12-14T00:41:41;6.20;64.90
4306;DHT22;2166;49.926;8.608;2023-12-14T00:44:10;6.10;64.90
4306;DHT22;2166;49.926;8.608;2023-12-14T00:46:39;6.10;64.90
4306;DHT22;2166;49.926;8.608;2023-12-14T00:49:09;6.00;64.90
4306;DHT22;2166;49.926;8.608;2023-12-14T00:51:40;5.90;64.90
4306;DHT22;2166;49.926;8.608;2023-12-14T00:54:08;5.90;64.90
4306;DHT22;2166;49.926;8.608;2023-12-14T00:56:39;5.80;64.80
4306;DHT22;2166;49.926;8.608;2023-12-14T00:59:08;5.80;64.90
4306;DHT22;2166;49.926;8.608;2023-12-14T01:01:36;5.80;64.80
4306;DHT22;2166;49.926;8.608;2023-12-14T01:04:05;5.80;64.80
4306;DHT22;2166;49.926;8.608;2023-12-14T01:06:33;5.80;64.80
4306;DHT22;2166;49.926;8.608;2023-12-14T01:09:05;5.80;64.90
4306;DHT22;2166;49.926;8.608;2023-12-14T01:11:35;5.70;64.80
4306;DHT22;2166;49.926;8.608;2023-12-14T01:14:03;5.70;64.90
4306;DHT22;2166;49.926;8.608;2023-12-14T01:16:32;5.70;64.80
4306;DHT22;2166;49.926;8.608;2023-12-14T01:19:02;5.80;64.80
4306;DHT22;2166;49.926;8.608;2023-12-14T01:21:32;5.80;64.80
4306;DHT22;2166;49.926;8.608;2023-12-14T01:24:02;5.90;64.80
4306;DHT22;2166;49.926;8.608;2023-12-14T01:26:31;5.90;64.90
4306;DHT22;2166;49.926;8.608;2023-12-14T01:29:00;5.90;64.80
4306;DHT22;2166;49.926;8.608;2023-12-14T01:31:28;5.80;64.90
4306;DHT22;2166;49.926;8.608;2023-12-14T01:33:57;5.80;64.80
4306;DHT22;2166;49.926;8.608;2023-12-14T01:36:26;5.80;64.90
4306;DHT22;2166;49.926;8.608;2023-12-14T01:38:54;5.70;64.90
4306;DHT22;2166;49.926;8.608;2023-12-14T01:41:23;5.80;64.80
4306;DHT22;2166;49.926;8.608;2023-12-14T01:43:53;5.80;64.80
4306;DHT22;2166;49.926;8.608;2023-12-14T01:46:22;5.80;64.90
4306;DHT22;2166;49.926;8.608;2023-12-14T01:48:51;5.80;64.80
4306;DHT22;2166;49.926;8.608;2023-12-14T01:51:20;5.80;64.90
4306;DHT22;2166;49.926;8.608;2023-12-14T01:53:48;5.60;64.90
4306;DHT22;2166;49.926;8.608;2023-12-14T01:56:17;5.60;64.80
4306;DHT22;2166;49.926;8.608;2023-12-14T01:58:45;5.50;65.00
4306;DHT22;2166;49.926;8.608;2023-12-14T02:01:20;5.40;65.00
4306;DHT22;2166;49.926;8.608;2023-12-14T02:03:51;5.40;65.00
4306;DHT22;2166;49.926;8.608;2023-12-14T02:06:21;5.40;64.90
4306;DHT22;2166;49.926;8.608;2023-12-14T02:08:49;5.40;64.90
4306;DHT22;2166;49.926;8.608;2023-12-14T02:11:17;5.50;65.00
4306;DHT22;2166;49.926;8.608;2023-12-14T02:13:46;5.60;64.80
4306;DHT22;2166;49.926;8.608;2023-12-14T02:16:16;5.60;64.90
4306;DHT22;2166;49.926;8.608;2023-12-14T02:18:46;5.60;64.90
4306;DHT22;2166;49.926;8.608;2023-12-14T02:21:14;5.60;64.80
4306;DHT22;2166;49.926;8.608;2023-12-14T02:23:45;5.70;64.90
4306;DHT22;2166;49.926;8.608;2023-12-14T02:26:14;5.70;64.90
4306;DHT22;2166;49.926;8.608;2023-12-14T02:28:43;5.70;64.90
4306;DHT22;2166;49.926;8.608;2023-12-14T02:31:11;5.80;64.80
4306;DHT22;2166;49.926;8.608;2023-12-14T02:33:40;5.80;64.80
4306;DHT22;2166;49.926;8.608;2023-12-14T02:36:10;5.90;64.90
4306;DHT22;2166;49.926;8.608;2023-12-14T02:38:40;5.90;64.80
4306;DHT22;2166;49.926;8.608;2023-12-14T02:41:10;5.90;64.90
4306;DHT22;2166;49.926;8.608;2023-12-14T02:43:38;5.90;64.80
4306;DHT22;2166;49.926;8.608;2023-12-14T02:46:08;5.90;64.90
4306;DHT22;2166;49.926;8.608;2023-12-14T02:48:41;5.90;64.90
4306;DHT22;2166;49.926;8.608;2023-12-14T02:51:13;5.90;65.00
4306;DHT22;2166;49.926;8.608;2023-12-14T02:53:42;5.90;64.80
4306;DHT22;2166;49.926;8.608;2023-12-14T02:56:12;5.80;64.80
4306;DHT22;2166;49.926;8.608;2023-12-14T02:58:40;5.90;64.90
4306;DHT22;2166;49.926;8.608;2023-12-14T03:01:09;5.80;64.90
4306;DHT22;2166;49.926;8.608;2023-12-14T03:03:38;5.80;64.90
4306;DHT22;2166;49.926;8.608;2023-12-14T03:06:07;5.80;64.90
4306;DHT22;2166;49.926;8.608;2023-12-14T03:08:35;5.80;64.90
4306;DHT22;2166;49.926;8.608;2023-12-14T03:11:04;5.90;64.90
4306;DHT22;2166;49.926;8.608;2023-12-14T03:13:33;5.90;64.90
4306;DHT22;2166;49.926;8.608;2023-12-14T03:16:02;5.90;64.90
4306;DHT22;2166;49.926;8.608;2023-12-14T03:18:30;5.90;64.80
4306;DHT22;2166;49.926;8.608;2023-12-14T03:20:59;5.90;64.90
4306;DHT22;2166;49.926;8.608;2023-12-14T03:23:28;6.00;64.90
4306;DHT22;2166;49.926;8.608;2023-12-14T03:25:56;6.00;64.90
4306;DHT22;2166;49.926;8.608;2023-12-14T03:28:24;6.10;64.90
4306;DHT22;2166;49.926;8.608;2023-12-14T03:30:55;6.10;64.90
4306;DHT22;2166;49.926;8.608;2023-12-14T03:33:23;6.20;64.90
4306;DHT22;2166;49.926;8.608;2023-12-14T03:35:52;6.20;64.90
4306;DHT22;2166;49.926;8.608;2023-12-14T03:38:21;6.30;64.90
4306;DHT22;2166;49.926;8.608;2023-12-14T03:40:49;6.30;64.90
4306;DHT22;2166;49.926;8.608;2023-12-14T03:43:19;6.40;64.90
4306;DHT22;2166;49.926;8.608;2023-12-14T03:45:48;6.40;65.00
4306;DHT22;2166;49.926;8.608;2023-12-14T03:48:19;6.30;64.90
4306;DHT22;2166;49.926;8.608;2023-12-14T03:50:47;6.40;64.90
4306;DHT22;2166;49.926;8.608;2023-12-14T03:53:15;6.30;65.00
4306;DHT22;2166;49.926;8.608;2023-12-14T03:55:44;6.20;65.00
4306;DHT22;2166;49.926;8.608;2023-12-14T03:58:13;6.10;64.80
4306;DHT22;2166;49.926;8.608;2023-12-14T04:00:41;6.10;64.90
4306;DHT22;2166;49.926;8.608;2023-12-14T04:03:10;6.00;64.90
4306;DHT22;2166;49.926;8.608;2023-12-14T04:05:40;6.00;64.80
4306;DHT22;2166;49.926;8.608;2023-12-14T04:08:08;6.10;64.90
4306;DHT22;2166;49.926;8.608;2023-12-14T04:10:37;6.10;64.90
4306;DHT22;2166;49.926;8.608;2023-12-14T04:13:09;6.10;64.90
4306;DHT22;2166;49.926;8.608;2023-12-14T04:15:37;6.10;64.90
4306;DHT22;2166;49.926;8.608;2023-12-14T04:18:07;6.20;64.90
4306;DHT22;2166;49.926;8.608;2023-12-14T04:20:35;6.20;64.90
4306;DHT22;2166;49.926;8.608;2023-12-14T04:23:05;6.20;64.90
4306;DHT22;2166;49.926;8.608;2023-12-14T04:25:35;6.30;64.90
4306;DHT22;2166;49.926;8.608;2023-12-14T04:28:05;6.30;64.90
4306;DHT22;2166;49.926;8.608;2023-12-14T04:30:33;6.20;64.80
4306;DHT22;2166;49.926;8.608;2023-12-14T04:33:02;6.20;64.90
4306;DHT22;2166;49.926;8.608;2023-12-14T04:35:33;6.20;64.80
4306;DHT22;2166;49.926;8.608;2023-12-14T04:38:05;6.20;64.90
4306;DHT22;2166;49.926;8.608;2023-12-14T04:40:34;6.30;64.90
4306;DHT22;2166;49.926;8.608;2023-12-14T04:43:02;6.20;64.90
4306;DHT22;2166;49.926;8.608;2023-12-14T04:45:31;6.20;64.90
4306;DHT22;2166;49.926;8.608;2023-12-14T04:47:59;6.10;64.90
4306;DHT22;2166;49.926;8.608;2023-12-14T04:50:29;6.10;64.90
4306;DHT22;2166;49.926;8.608;2023-12-14T04:52:59;6.20;64.90
4306;DHT22;2166;49.926;8.608;2023-12-14T04:55:31;6.20;65.00
4306;DHT22;2166;49.926;8.608;2023-12-14T04:58:00;6.20;65.00
4306;DHT22;2166;49.926;8.608;2023-12-14T05:00:28;6.20;64.90
4306;DHT22;2166;49.926;8.608;2023-12-14T05:02:56;6.20;64.90
4306;DHT22;2166;49.926;8.608;2023-12-14T05:05:25;6.30;64.90
4306;DHT22;2166;49.926;8.608;2023-12-14T05:07:53;6.30;64.90
4306;DHT22;2166;49.926;8.608;2023-12-14T05:10:22;6.30;64.90
4306;DHT22;2166;49.926;8.608;2023-12-14T05:12:51;6.40;64.90
4306;DHT22;2166;49.926;8.608;2023-12-14T05:15:20;6.40;64.90
4306;DHT22;2166;49.926;8.608;2023-12-14T05:17:48;6.40;64.90
4306;DHT22;2166;49.926;8.608;2023-12-14T05:20:17;6.40;64.80
4306;DHT22;2166;49.926;8.608;2023-12-14T05:22:47;6.40;64.90
4306;DHT22;2166;49.926;8.608;2023-12-14T05:25:16;6.30;64.90
4306;DHT22;2166;49.926;8.608;2023-12-14T05:27:44;6.30;64.80
4306;DHT22;2166;49.926;8.608;2023-12-14T05:30:15;6.30;64.90
4306;DHT22;2166;49.926;8.608;2023-12-14T05:32:43;6.30;64.80
4306;DHT22;2166;49.926;8.608;2023-12-14T05:35:12;6.30;64.90
4306;DHT22;2166;49.926;8.608;2023-12-14T05:37:45;6.30;64.90
4306;DHT22;2166;49.926;8.608;2023-12-14T05:40:14;6.30;64.90
4306;DHT22;2166;49.926;8.608;2023-12-14T05:42:42;6.20;64.90
4306;DHT22;2166;49.926;8.608;2023-12-14T05:45:10;6.10;64.80
4306;DHT22;2166;49.926;8.608;2023-12-14T05:47:40;6.10;64.80
4306;DHT22;2166;49.926;8.608;2023-12-14T05:50:10;6.10;64.90
4306;DHT22;2166;49.926;8.608;2023-12-14T05:52:41;6.20;64.90
4306;DHT22;2166;49.926;8.608;2023-12-14T05:55:09;6.20;64.90
4306;DHT22;2166;49.926;8.608;2023-12-14T05:57:38;6.20;64.90
4306;DHT22;2166;49.926;8.608;2023-12-14T06:00:10;6.30;64.90
4306;DHT22;2166;49.926;8.608;2023-12-14T06:02:40;6.30;64.90
4306;DHT22;2166;49.926;8.608;2023-12-14T06:05:12;6.30;64.90
4306;DHT22;2166;49.926;8.608;2023-12-14T06:07:41;6.30;64.90
4306;DHT22;2166;49.926;8.608;2023-12-14T06:10:10;6.30;64.90
4306;DHT22;2166;49.926;8.608;2023-12-14T06:12:40;6.30;64.90
4306;DHT22;2166;49.926;8.608;2023-12-14T06:15:09;6.30;64.90
4306;DHT22;2166;49.926;8.608;2023-12-14T06:17:37;6.30;64.90
4306;DHT22;2166;49.926;8.608;2023-12-14T06:20:10;6.30;64.90
4306;DHT22;2166;49.926;8.608;2023-12-14T06:22:39;6.30;64.90
4306;DHT22;2166;49.926;8.608;2023-12-14T06:25:08;6.40;64.90
4306;DHT22;2166;49.926;8.608;2023-12-14T06:27:37;6.40;65.00
4306;DHT22;2166;49.926;8.608;2023-12-14T06:30:07;6.40;65.00
4306;DHT22;2166;49.926;8.608;2023-12-14T06:32:38;6.40;64.90
4306;DHT22;2166;49.926;8.608;2023-12-14T06:35:08;6.40;65.00
4306;DHT22;2166;49.926;8.608;2023-12-14T06:37:37;6.40;64.90
4306;DHT22;2166;49.926;8.608;2023-12-14T06:40:07;6.50;64.90
4306;DHT22;2166;49.926;8.608;2023-12-14T06:42:36;6.50;64.90
4306;DHT22;2166;49.926;8.608;2023-12-14T06:45:05;6.60;65.00
4306;DHT22;2166;49.926;8.608;2023-12-14T06:47:34;6.60;64.90
4306;DHT22;2166;49.926;8.608;2023-12-14T06:50:03;6.60;64.90
4306;DHT22;2166;49.926;8.608;2023-12-14T06:52:33;6.60;64.90
4306;DHT22;2166;49.926;8.608;2023-12-14T06:55:02;6.60;64.90
4306;DHT22;2166;49.926;8.608;2023-12-14T06:57:33;6.70;64.80
4306;DHT22;2166;49.926;8.608;2023-12-14T07:00:01;6.70;64.80
4306;DHT22;2166;49.926;8.608;2023-12-14T07:02:30;6.60;64.80
4306;DHT22;2166;49.926;8.608;2023-12-14T07:04:59;6.60;64.80
4306;DHT22;2166;49.926;8.608;2023-12-14T07:07:27;6.60;64.80
4306;DHT22;2166;49.926;8.608;2023-12-14T07:09:57;6.50;64.80
4306;DHT22;2166;49.926;8.608;2023-12-14T07:12:25;6.50;64.80
4306;DHT22;2166;49.926;8.608;2023-12-14T07:14:54;6.50;64.80
4306;DHT22;2166;49.926;8.608;2023-12-14T07:17:23;6.50;64.80
4306;DHT22;2166;49.926;8.608;2023-12-14T07:19:51;6.50;64.80
4306;DHT22;2166;49.926;8.608;2023-12-14T07:22:24;6.60;64.80
4306;DHT22;2166;49.926;8.608;2023-12-14T07:24:53;6.60;64.80
4306;DHT22;2166;49.926;8.608;2023-12-14T07:27:27;6.70;64.80
4306;DHT22;2166;49.926;8.608;2023-12-14T07:29:55;6.70;64.80
4306;DHT22;2166;49.926;8.608;2023-12-14T07:32:24;6.80;64.80
4306;DHT22;2166;49.926;8.608;2023-12-14T07:34:54;6.80;64.80
4306;DHT22;2166;49.926;8.608;2023-12-14T07:37:22;6.80;64.80
4306;DHT22;2166;49.926;8.608;2023-12-14T07:39:52;6.80;64.80
4306;DHT22;2166;49.926;8.608;2023-12-14T07:42:20;6.70;64.70
4306;DHT22;2166;49.926;8.608;2023-12-14T07:44:50;6.70;64.70
4306;DHT22;2166;49.926;8.608;2023-12-14T07:47:19;6.70;64.70
4306;DHT22;2166;49.926;8.608;2023-12-14T07:49:47;6.70;64.80
4306;DHT22;2166;49.926;8.608;2023-12-14T07:52:15;6.70;64.80
4306;DHT22;2166;49.926;8.608;2023-12-14T07:54:44;6.70;64.80
4306;DHT22;2166;49.926;8.608;2023-12-14T07:57:14;6.80;64.80
4306;DHT22;2166;49.926;8.608;2023-12-14T07:59:42;6.80;64.80
4306;DHT22;2166;49.926;8.608;2023-12-14T08:02:12;6.90;64.80
4306;DHT22;2166;49.926;8.608;2023-12-14T08:04:41;7.00;64.80
4306;DHT22;2166;49.926;8.608;2023-12-14T08:07:11;6.90;64.70
4306;DHT22;2166;49.926;8.608;2023-12-14T08:09:39;7.00;64.80
4306;DHT22;2166;49.926;8.608;2023-12-14T08:12:08;7.10;64.70
4306;DHT22;2166;49.926;8.608;2023-12-14T08:14:38;7.20;64.70
4306;DHT22;2166;49.926;8.608;2023-12-14T08:17:12;7.30;64.80
4306;DHT22;2166;49.926;8.608;2023-12-14T08:19:40;7.30;64.80
4306;DHT22;2166;49.926;8.608;2023-12-14T08:22:09;7.30;64.80
4306;DHT22;2166;49.926;8.608;2023-12-14T08:24:39;7.30;64.70
4306;DHT22;2166;49.926;8.608;2023-12-14T08:27:10;7.40;64.70
4306;DHT22;2166;49.926;8.608;2023-12-14T08:29:39;7.40;64.80
4306;DHT22;2166;49.926;8.608;2023-12-14T08:32:08;7.30;64.80
4306;DHT22;2166;49.926;8.608;2023-12-14T08:34:39;7.40;64.70
4306;DHT22;2166;49.926;8.608;2023-12-14T08:37:08;7.30;64.80
4306;DHT22;2166;49.926;8.608;2023-12-14T08:39:37;7.40;64.70
4306;DHT22;2166;49.926;8.608;2023-12-14T08:42:06;7.50;64.60
4306;DHT22;2166;49.926;8.608;2023-12-14T08:44:34;7.70;64.80
4306;DHT22;2166;49.926;8.608;2023-12-14T08:47:04;7.90;64.60
4306;DHT22;2166;49.926;8.608;2023-12-14T08:49:33;8.00;64.80
4306;DHT22;2166;49.926;8.608;2023-12-14T08:52:04;8.10;64.80
4306;DHT22;2166;49.926;8.608;2023-12-14T08:54:33;8.20;64.70
4306;DHT22;2166;49.926;8.608;2023-12-14T08:57:02;8.30;64.60
4306;DHT22;2166;49.926;8.608;2023-12-14T08:59:31;8.50;64.70
4306;DHT22;2166;49.926;8.608;2023-12-14T09:01:59;8.70;64.80
4306;DHT22;2166;49.926;8.608;2023-12-14T09:04:28;9.00;64.80
4306;DHT22;2166;49.926;8.608;2023-12-14T09:06:57;9.00;65.70
4306;DHT22;2166;49.926;8.608;2023-12-14T09:09:27;9.00;65.90
4306;DHT22;2166;49.926;8.608;2023-12-14T09:11:56;8.90;66.60
4306;DHT22;2166;49.926;8.608;2023-12-14T09:14:25;8.90;66.40
4306;DHT22;2166;49.926;8.608;2023-12-14T09:16:54;8.90;65.90
4306;DHT22;2166;49.926;8.608;2023-12-14T09:19:22;8.90;65.50
4306;DHT22;2166;49.926;8.608;2023-12-14T09:21:51;8.90;65.90
4306;DHT22;2166;49.926;8.608;2023-12-14T09:24:20;9.00;65.60
4306;DHT22;2166;49.926;8.608;2023-12-14T09:26:50;9.20;65.20
4306;DHT22;2166;49.926;8.608;2023-12-14T09:29:19;9.30;65.30
4306;DHT22;2166;49.926;8.608;2023-12-14T09:31:48;9.50;65.20
4306;DHT22;2166;49.926;8.608;2023-12-14T09:34:17;9.60;65.90
4306;DHT22;2166;49.926;8.608;2023-12-14T09:36:46;9.60;66.20
4306;DHT22;2166;49.926;8.608;2023-12-14T09:39:15;9.60;66.50
4306;DHT22;2166;49.926;8.608;2023-12-14T09:41:46;9.60;67.00
4306;DHT22;2166;49.926;8.608;2023-12-14T09:44:16;9.70;66.80
4306;DHT22;2166;49.926;8.608;2023-12-14T09:46:46;9.70;67.80
4306;DHT22;2166;49.926;8.608;2023-12-14T09:49:17;9.60;68.00
4306;DHT22;2166;49.926;8.608;2023-12-14T09:51:46;9.70;66.70
4306;DHT22;2166;49.926;8.608;2023-12-14T09:54:16;9.80;66.50
4306;DHT22;2166;49.926;8.608;2023-12-14T09:56:48;9.90;66.40
4306;DHT22;2166;49.926;8.608;2023-12-14T09:59:19;10.00;67.60
4306;DHT22;2166;49.926;8.608;2023-12-14T10:01:47;10.00;68.10
4306;DHT22;2166;49.926;8.608;2023-12-14T10:04:18;10.00;68.40
4306;DHT22;2166;49.926;8.608;2023-12-14T10:06:47;10.10;69.50
4306;DHT22;2166;49.926;8.608;2023-12-14T10:09:23;10.20;70.10
4306;DHT22;2166;49.926;8.608;2023-12-14T10:12:04;10.20;68.60
4306;DHT22;2166;49.926;8.608;2023-12-14T10:14:36;10.30;69.00
4306;DHT22;2166;49.926;8.608;2023-12-14T10:17:24;10.30;70.60
4306;DHT22;2166;49.926;8.608;2023-12-14T10:20:00;10.10;69.80
4306;DHT22;2166;49.926;8.608;2023-12-14T10:22:32;10.00;70.30
4306;DHT22;2166;49.926;8.608;2023-12-14T10:25:00;9.90;68.80
4306;DHT22;2166;49.926;8.608;2023-12-14T10:27:31;9.80;70.60
4306;DHT22;2166;49.926;8.608;2023-12-14T10:30:05;9.70;68.80
4306;DHT22;2166;49.926;8.608;2023-12-14T10:32:33;9.50;68.20
4306;DHT22;2166;49.926;8.608;2023-12-14T10:35:03;9.40;68.20
4306;DHT22;2166;49.926;8.608;2023-12-14T10:37:32;9.40;67.60
4306;DHT22;2166;49.926;8.608;2023-12-14T10:40:07;9.30;67.00
4306;DHT22;2166;49.926;8.608;2023-12-14T10:42:39;9.30;66.60
4306;DHT22;2166;49.926;8.608;2023-12-14T10:45:12;9.30;66.80
4306;DHT22;2166;49.926;8.608;2023-12-14T10:47:48;9.20;67.10
4306;DHT22;2166;49.926;8.608;2023-12-14T10:50:17;9.10;66.20
4306;DHT22;2166;49.926;8.608;2023-12-14T10:52:47;9.00;65.90
4306;DHT22;2166;49.926;8.608;2023-12-14T10:55:23;9.00;65.90
4306;DHT22;2166;49.926;8.608;2023-12-14T10:57:54;9.00;65.40
4306;DHT22;2166;49.926;8.608;2023-12-14T11:00:24;9.00;65.40
4306;DHT22;2166;49.926;8.608;2023-12-14T11:02:52;9.00;65.70
4306;DHT22;2166;49.926;8.608;2023-12-14T11:05:22;8.90;65.50
4306;DHT22;2166;49.926;8.608;2023-12-14T11:08:00;8.90;65.70
4306;DHT22;2166;49.926;8.608;2023-12-14T11:10:37;8.70;65.60
4306;DHT22;2166;49.926;8.608;2023-12-14T11:13:08;8.70;65.20
4306;DHT22;2166;49.926;8.608;2023-12-14T11:15:47;8.80;65.30
4306;DHT22;2166;49.926;8.608;2023-12-14T11:18:25;8.70;65.30
4306;DHT22;2166;49.926;8.608;2023-12-14T11:20:56;8.80;65.00
4306;DHT22;2166;49.926;8.608;2023-12-14T11:23:31;8.80;65.50
4306;DHT22;2166;49.926;8.608;2023-12-14T11:26:02;8.70;65.10
4306;DHT22;2166;49.926;8.608;2023-12-14T11:28:33;8.70;65.10
4306;DHT22;2166;49.926;8.608;2023-12-14T11:31:09;8.70;65.10
4306;DHT22;2166;49.926;8.608;2023-12-14T11:33:40;8.60;64.90
4306;DHT22;2166;49.926;8.608;2023-12-14T11:36:11;8.60;64.90
4306;DHT22;2166;49.926;8.608;2023-12-14T11:38:42;8.60;65.30
4306;DHT22;2166;49.926;8.608;2023-12-14T11:41:13;8.60;64.90
4306;DHT22;2166;49.926;8.608;2023-12-14T11:43:43;8.70;65.10
4306;DHT22;2166;49.926;8.608;2023-12-14T11:46:18;8.80;64.90
4306;DHT22;2166;49.926;8.608;2023-12-14T11:48:46;8.90;65.40
4306;DHT22;2166;49.926;8.608;2023-12-14T11:51:16;8.90;65.70
4306;DHT22;2166;49.926;8.608;2023-12-14T11:53:47;8.80;65.90
4306;DHT22;2166;49.926;8.608;2023-12-14T11:56:17;8.80;65.40
4306;DHT22;2166;49.926;8.608;2023-12-14T11:58:46;8.90;65.30
4306;DHT22;2166;49.926;8.608;2023-12-14T12:01:19;9.00;65.50
4306;DHT22;2166;49.926;8.608;2023-12-14T12:03:48;8.90;65.90
4306;DHT22;2166;49.926;8.608;2023-12-14T12:06:20;9.00;65.70
4306;DHT22;2166;49.926;8.608;2023-12-14T12:08:52;9.00;65.60
4306;DHT22;2166;49.926;8.608;2023-12-14T12:11:22;9.10;65.40
4306;DHT22;2166;49.926;8.608;2023-12-14T12:13:56;9.20;65.50
4306;DHT22;2166;49.926;8.608;2023-12-14T12:16:29;9.40;65.40
4306;DHT22;2166;49.926;8.608;2023-12-14T12:18:58;9.50;65.60
4306;DHT22;2166;49.926;8.608;2023-12-14T12:21:26;9.60;65.50
4306;DHT22;2166;49.926;8.608;2023-12-14T12:23:56;9.70;66.40
4306;DHT22;2166;49.926;8.608;2023-12-14T12:26:24;9.80;66.80
4306;DHT22;2166;49.926;8.608;2023-12-14T12:28:53;9.80;67.20
4306;DHT22;2166;49.926;8.608;2023-12-14T12:31:21;9.80;66.80
4306;DHT22;2166;49.926;8.608;2023-12-14T12:33:52;9.60;67.80
4306;DHT22;2166;49.926;8.608;2023-12-14T12:36:20;9.50;67.60
4306;DHT22;2166;49.926;8.608;2023-12-14T12:38:49;9.40;67.30
4306;DHT22;2166;49.926;8.608;2023-12-14T12:41:17;9.40;67.10
4306;DHT22;2166;49.926;8.608;2023-12-14T12:43:46;9.30;66.90
4306;DHT22;2166;49.926;8.608;2023-12-14T12:46:17;9.30;67.50
4306;DHT22;2166;49.926;8.608;2023-12-14T12:48:45;9.30;66.60
4306;DHT22;2166;49.926;8.608;2023-12-14T12:51:16;9.40;66.90
4306;DHT22;2166;49.926;8.608;2023-12-14T12:53:44;9.50;67.60
4306;DHT22;2166;49.926;8.608;2023-12-14T12:56:18;9.50;68.30
4306;DHT22;2166;49.926;8.608;2023-12-14T12:58:47;9.50;68.20
4306;DHT22;2166;49.926;8.608;2023-12-14T13:01:18;9.60;68.80
4306;DHT22;2166;49.926;8.608;2023-12-14T13:03:46;9.60;68.60
4306;DHT22;2166;49.926;8.608;2023-12-14T13:06:17;9.60;69.10
4306;DHT22;2166;49.926;8.608;2023-12-14T13:08:45;9.60;68.90
4306;DHT22;2166;49.926;8.608;2023-12-14T13:11:14;9.70;69.10
4306;DHT22;2166;49.926;8.608;2023-12-14T13:13:42;9.80;68.70
4306;DHT22;2166;49.926;8.608;2023-12-14T13:16:10;9.90;69.40
4306;DHT22;2166;49.926;8.608;2023-12-14T13:18:40;9.90;69.90
4306;DHT22;2166;49.926;8.608;2023-12-14T13:21:10;9.80;69.90
4306;DHT22;2166;49.926;8.608;2023-12-14T13:23:41;9.80;70.50
4306;DHT22;2166;49.926;8.608;2023-12-14T13:26:13;9.80;69.60
4306;DHT22;2166;49.926;8.608;2023-12-14T13:28:42;9.80;69.80
4306;DHT22;2166;49.926;8.608;2023-12-14T13:31:10;9.90;69.70
4306;DHT22;2166;49.926;8.608;2023-12-14T13:33:39;9.80;70.00
4306;DHT22;2166;49.926;8.608;2023-12-14T13:36:08;9.90;70.50
4306;DHT22;2166;49.926;8.608;2023-12-14T13:38:37;9.80;72.10
4306;DHT22;2166;49.926;8.608;2023-12-14T13:41:07;9.60;71.70
4306;DHT22;2166;49.926;8.608;2023-12-14T13:43:36;9.60;70.60
4306;DHT22;2166;49.926;8.608;2023-12-14T13:46:04;9.60;70.30
4306;DHT22;2166;49.926;8.608;2023-12-14T13:48:47;9.60;69.70
4306;DHT22;2166;49.926;8.608;2023-12-14T13:51:15;9.50;69.70
4306;DHT22;2166;49.926;8.608;2023-12-14T13:53:43;9.50;69.90
4306;DHT22;2166;49.926;8.608;2023-12-14T13:56:13;9.40;69.40
4306;DHT22;2166;49.926;8.608;2023-12-14T13:58:41;9.30;69.30
4306;DHT22;2166;49.926;8.608;2023-12-14T14:01:10;9.30;69.60
4306;DHT22;2166;49.926;8.608;2023-12-14T14:03:38;9.30;69.30
4306;DHT22;2166;49.926;8.608;2023-12-14T14:06:09;9.30;69.50
4306;DHT22;2166;49.926;8.608;2023-12-14T14:08:38;9.30;69.50
4306;DHT22;2166;49.926;8.608;2023-12-14T14:11:07;9.40;70.70
4306;DHT22;2166;49.926;8.608;2023-12-14T14:13:38;9.40;71.00
4306;DHT22;2166;49.926;8.608;2023-12-14T14:16:08;9.40;71.00
4306;DHT22;2166;49.926;8.608;2023-12-14T14:18:37;9.30;70.20
4306;DHT22;2166;49.926;8.608;2023-12-14T14:21:06;9.30;70.20
4306;DHT22;2166;49.926;8.608;2023-12-14T14:23:35;9.20;70.30
4306;DHT22;2166;49.926;8.608;2023-12-14T14:26:04;9.20;70.60
4306;DHT22;2166;49.926;8.608;2023-12-14T14:28:34;9.10;71.40
4306;DHT22;2166;49.926;8.608;2023-12-14T14:31:04;9.00;71.70
4306;DHT22;2166;49.926;8.608;2023-12-14T14:33:38;8.90;70.40
4306;DHT22;2166;49.926;8.608;2023-12-14T14:36:07;8.80;71.10
4306;DHT22;2166;49.926;8.608;2023-12-14T14:38:36;8.80;70.40
4306;DHT22;2166;49.926;8.608;2023-12-14T14:41:05;8.80;71.40
4306;DHT22;2166;49.926;8.608;2023-12-14T14:43:34;8.80;71.00
4306;DHT22;2166;49.926;8.608;2023-12-14T14:46:06;8.80;70.70
4306;DHT22;2166;49.926;8.608;2023-12-14T14:48:35;8.80;71.20
4306;DHT22;2166;49.926;8.608;2023-12-14T14:51:05;8.80;71.00
4306;DHT22;2166;49.926;8.608;2023-12-14T14:53:36;8.70;70.80
4306;DHT22;2166;49.926;8.608;2023-12-14T14:56:06;8.70;70.40
4306;DHT22;2166;49.926;8.608;2023-12-14T14:58:36;8.70;70.60
4306;DHT22;2166;49.926;8.608;2023-12-14T15:01:06;8.60;70.30
4306;DHT22;2166;49.926;8.608;2023-12-14T15:03:35;8.70;69.90
4306;DHT22;2166;49.926;8.608;2023-12-14T15:06:07;8.60;69.90
4306;DHT22;2166;49.926;8.608;2023-12-14T15:08:36;8.50;70.00
4306;DHT22;2166;49.926;8.608;2023-12-14T15:11:05;8.40;70.50
4306;DHT22;2166;49.926;8.608;2023-12-14T15:13:38;8.30;70.20
4306;DHT22;2166;49.926;8.608;2023-12-14T15:16:11;8.20;69.50
4306;DHT22;2166;49.926;8.608;2023-12-14T15:18:40;8.10;69.20
4306;DHT22;2166;49.926;8.608;2023-12-14T15:21:11;8.10;69.40
4306;DHT22;2166;49.926;8.608;2023-12-14T15:23:42;8.00;69.80
4306;DHT22;2166;49.926;8.608;2023-12-14T15:26:14;7.90;69.90
4306;DHT22;2166;49.926;8.608;2023-12-14T15:28:43;7.90;69.80
4306;DHT22;2166;49.926;8.608;2023-12-14T15:31:14;7.90;70.10
4306;DHT22;2166;49.926;8.608;2023-12-14T15:33:42;7.90;70.20
4306;DHT22;2166;49.926;8.608;2023-12-14T15:36:11;7.90;70.10
4306;DHT22;2166;49.926;8.608;2023-12-14T15:38:39;7.90;70.10
4306;DHT22;2166;49.926;8.608;2023-12-14T15:41:12;8.00;69.90
4306;DHT22;2166;49.926;8.608;2023-12-14T15:43:43;8.00;70.20
4306;DHT22;2166;49.926;8.608;2023-12-14T15:46:12;8.00;70.60
4306;DHT22;2166;49.926;8.608;2023-12-14T15:48:44;8.10;70.70
4306;DHT22;2166;49.926;8.608;2023-12-14T15:51:13;8.00;70.90
4306;DHT22;2166;49.926;8.608;2023-12-14T15:53:42;8.00;70.20
4306;DHT22;2166;49.926;8.608;2023-12-14T15:56:10;8.10;69.50
4306;DHT22;2166;49.926;8.608;2023-12-14T15:58:39;8.10;69.90
4306;DHT22;2166;49.926;8.608;2023-12-14T16:01:08;8.00;70.20
4306;DHT22;2166;49.926;8.608;2023-12-14T16:03:37;7.90;70.50
4306;DHT22;2166;49.926;8.608;2023-12-14T16:06:08;7.80;70.50
4306;DHT22;2166;49.926;8.608;2023-12-14T16:08:37;7.70;70.30
4306;DHT22;2166;49.926;8.608;2023-12-14T16:11:06;7.60;70.60
4306;DHT22;2166;49.926;8.608;2023-12-14T16:13:35;7.60;70.80
4306;DHT22;2166;49.926;8.608;2023-12-14T16:16:04;7.60;70.00
4306;DHT22;2166;49.926;8.608;2023-12-14T16:18:34;7.50;70.10
4306;DHT22;2166;49.926;8.608;2023-12-14T16:21:04;7.50;69.20
4306;DHT22;2166;49.926;8.608;2023-12-14T16:23:33;7.40;69.40
4306;DHT22;2166;49.926;8.608;2023-12-14T16:26:04;7.40;69.10
4306;DHT22;2166;49.926;8.608;2023-12-14T16:28:34;7.20;69.40
4306;DHT22;2166;49.926;8.608;2023-12-14T16:31:03;7.10;69.20
4306;DHT22;2166;49.926;8.608;2023-12-14T16:33:36;7.10;69.60